sensor_id;sensor_type;location;lat;lon;timestamp;P1;durP1;ratioP1;P2;durP2;ratioP2
830;SDS011;397;50.564;7.272;2023-06-10T00:02:10;18.83;;;14.53;;
830;SDS011;397;50.564;7.272;2023-06-10T00:04:37;15.40;;;14.20;;
830;SDS011;397;50.564;7.272;2023-06-10T00:07:05;13.03;;;11.73;;
830;SDS011;397;50.564;7.272;2023-06-10T00:09:36;13.00;;;12.00;;
830;SDS011;397;50.564;7.272;2023-06-10T00:12:04;14.63;;;13.43;;
830;SDS011;397;50.564;7.272;2023-06-10T00:14:33;13.90;;;12.80;;
830;SDS011;397;50.564;7.272;2023-06-10T00:17:01;13.47;;;12.20;;
830;SDS011;397;50.564;7.272;2023-06-10T00:19:29;15.43;;;14.23;;
830;SDS011;397;50.564;7.272;2023-06-10T00:21:57;13.57;;;12.30;;
830;SDS011;397;50.564;7.272;2023-06-10T00:24:24;14.60;;;13.40;;
830;SDS011;397;50.564;7.272;2023-06-10T00:26:52;13.47;;;12.47;;
830;SDS011;397;50.564;7.272;2023-06-10T00:29:20;13.80;;;12.37;;
830;SDS011;397;50.564;7.272;2023-06-10T00:31:47;13.27;;;12.17;;
830;SDS011;397;50.564;7.272;2023-06-10T00:34:15;15.23;;;13.83;;
830;SDS011;397;50.564;7.272;2023-06-10T00:36:42;13.87;;;12.77;;
830;SDS011;397;50.564;7.272;2023-06-10T00:39:10;13.67;;;12.50;;
830;SDS011;397;50.564;7.272;2023-06-10T00:41:37;13.30;;;12.30;;
830;SDS011;397;50.564;7.272;2023-06-10T00:44:05;13.03;;;11.77;;
830;SDS011;397;50.564;7.272;2023-06-10T00:46:32;15.10;;;13.50;;
830;SDS011;397;50.564;7.272;2023-06-10T00:49:01;13.77;;;12.67;;
830;SDS011;397;50.564;7.272;2023-06-10T00:51:28;14.10;;;12.90;;
830;SDS011;397;50.564;7.272;2023-06-10T00:53:56;12.67;;;11.63;;
830;SDS011;397;50.564;7.272;2023-06-10T00:56:24;13.10;;;12.00;;
830;SDS011;397;50.564;7.272;2023-06-10T00:58:51;14.37;;;13.17;;
830;SDS011;397;50.564;7.272;2023-06-10T01:01:19;13.87;;;12.57;;
830;SDS011;397;50.564;7.272;2023-06-10T01:03:46;13.40;;;12.30;;
830;SDS011;397;50.564;7.272;2023-06-10T01:08:57;13.87;;;12.77;;
830;SDS011;397;50.564;7.272;2023-06-10T01:11:46;12.80;;;11.80;;
830;SDS011;397;50.564;7.272;2023-06-10T01:14:20;14.37;;;13.07;;
830;SDS011;397;50.564;7.272;2023-06-10T01:16:49;14.33;;;13.13;;
830;SDS011;397;50.564;7.272;2023-06-10T01:19:18;12.77;;;11.67;;
830;SDS011;397;50.564;7.272;2023-06-10T01:21:45;13.63;;;12.53;;
830;SDS011;397;50.564;7.272;2023-06-10T01:24:14;13.80;;;12.73;;
830;SDS011;397;50.564;7.272;2023-06-10T01:26:44;12.50;;;11.40;;
830;SDS011;397;50.564;7.272;2023-06-10T01:29:21;14.07;;;12.97;;
830;SDS011;397;50.564;7.272;2023-06-10T01:31:59;14.20;;;13.10;;
830;SDS011;397;50.564;7.272;2023-06-10T01:34:23;12.40;;;11.20;;
830;SDS011;397;50.564;7.272;2023-06-10T01:36:53;13.37;;;12.13;;
830;SDS011;397;50.564;7.272;2023-06-10T01:39:23;14.03;;;12.83;;
830;SDS011;397;50.564;7.272;2023-06-10T01:41:52;12.90;;;11.60;;
830;SDS011;397;50.564;7.272;2023-06-10T01:44:20;13.77;;;12.67;;
830;SDS011;397;50.564;7.272;2023-06-10T01:46:48;15.43;;;12.23;;
830;SDS011;397;50.564;7.272;2023-06-10T01:49:16;14.03;;;12.90;;
830;SDS011;397;50.564;7.272;2023-06-10T01:51:43;14.23;;;12.93;;
830;SDS011;397;50.564;7.272;2023-06-10T01:54:11;12.93;;;12.03;;
830;SDS011;397;50.564;7.272;2023-06-10T01:56:38;14.27;;;12.87;;
830;SDS011;397;50.564;7.272;2023-06-10T01:59:06;14.83;;;13.53;;
830;SDS011;397;50.564;7.272;2023-06-10T02:01:33;15.43;;;13.87;;
830;SDS011;397;50.564;7.272;2023-06-10T02:04:01;13.63;;;12.43;;
830;SDS011;397;50.564;7.272;2023-06-10T02:06:28;15.80;;;14.40;;
830;SDS011;397;50.564;7.272;2023-06-10T02:08:56;14.03;;;12.93;;
830;SDS011;397;50.564;7.272;2023-06-10T02:11:24;14.23;;;13.13;;
830;SDS011;397;50.564;7.272;2023-06-10T02:13:52;13.67;;;12.57;;
830;SDS011;397;50.564;7.272;2023-06-10T02:16:20;15.23;;;14.00;;
830;SDS011;397;50.564;7.272;2023-06-10T02:18:48;14.87;;;13.67;;
830;SDS011;397;50.564;7.272;2023-06-10T02:21:15;14.03;;;12.77;;
830;SDS011;397;50.564;7.272;2023-06-10T02:23:43;13.77;;;12.60;;
830;SDS011;397;50.564;7.272;2023-06-10T02:26:10;13.13;;;12.03;;
830;SDS011;397;50.564;7.272;2023-06-10T02:28:38;15.40;;;14.20;;
830;SDS011;397;50.564;7.272;2023-06-10T02:31:07;14.73;;;13.63;;
830;SDS011;397;50.564;7.272;2023-06-10T02:33:34;23.10;;;14.70;;
830;SDS011;397;50.564;7.272;2023-06-10T02:36:04;13.87;;;12.80;;
830;SDS011;397;50.564;7.272;2023-06-10T02:38:31;14.30;;;13.10;;
830;SDS011;397;50.564;7.272;2023-06-10T02:40:59;16.53;;;15.07;;
830;SDS011;397;50.564;7.272;2023-06-10T02:43:26;15.20;;;13.93;;
830;SDS011;397;50.564;7.272;2023-06-10T02:45:54;15.20;;;14.03;;
830;SDS011;397;50.564;7.272;2023-06-10T02:48:23;15.17;;;13.97;;
830;SDS011;397;50.564;7.272;2023-06-10T02:50:50;16.07;;;14.87;;
830;SDS011;397;50.564;7.272;2023-06-10T02:53:18;15.63;;;14.33;;
830;SDS011;397;50.564;7.272;2023-06-10T02:55:45;13.53;;;12.30;;
830;SDS011;397;50.564;7.272;2023-06-10T02:58:13;15.40;;;14.10;;
830;SDS011;397;50.564;7.272;2023-06-10T03:00:40;14.30;;;13.10;;
830;SDS011;397;50.564;7.272;2023-06-10T03:03:08;13.40;;;12.30;;
830;SDS011;397;50.564;7.272;2023-06-10T03:05:36;14.93;;;13.63;;
830;SDS011;397;50.564;7.272;2023-06-10T03:08:03;16.60;;;15.20;;
830;SDS011;397;50.564;7.272;2023-06-10T03:10:31;14.60;;;13.40;;
830;SDS011;397;50.564;7.272;2023-06-10T03:12:58;14.57;;;13.30;;
830;SDS011;397;50.564;7.272;2023-06-10T03:15:26;13.50;;;12.40;;
830;SDS011;397;50.564;7.272;2023-06-10T03:17:54;13.53;;;12.53;;
830;SDS011;397;50.564;7.272;2023-06-10T03:20:22;14.20;;;13.00;;
830;SDS011;397;50.564;7.272;2023-06-10T03:22:51;14.30;;;13.10;;
830;SDS011;397;50.564;7.272;2023-06-10T03:25:18;13.60;;;12.20;;
830;SDS011;397;50.564;7.272;2023-06-10T03:27:46;15.10;;;13.60;;
830;SDS011;397;50.564;7.272;2023-06-10T03:30:14;13.77;;;12.73;;
830;SDS011;397;50.564;7.272;2023-06-10T03:32:41;15.33;;;13.93;;
830;SDS011;397;50.564;7.272;2023-06-10T03:35:09;14.23;;;12.83;;
830;SDS011;397;50.564;7.272;2023-06-10T03:37:37;14.97;;;13.77;;
830;SDS011;397;50.564;7.272;2023-06-10T03:40:05;14.83;;;13.53;;
830;SDS011;397;50.564;7.272;2023-06-10T03:42:34;13.47;;;12.33;;
830;SDS011;397;50.564;7.272;2023-06-10T03:45:02;15.03;;;13.60;;
830;SDS011;397;50.564;7.272;2023-06-10T03:47:34;14.47;;;13.37;;
830;SDS011;397;50.564;7.272;2023-06-10T03:50:05;13.57;;;12.47;;
830;SDS011;397;50.564;7.272;2023-06-10T03:52:35;14.33;;;13.17;;
830;SDS011;397;50.564;7.272;2023-06-10T03:55:04;14.23;;;13.13;;
830;SDS011;397;50.564;7.272;2023-06-10T03:57:32;14.50;;;13.30;;
830;SDS011;397;50.564;7.272;2023-06-10T03:59:59;14.60;;;13.40;;
830;SDS011;397;50.564;7.272;2023-06-10T04:02:29;13.93;;;12.83;;
830;SDS011;397;50.564;7.272;2023-06-10T04:04:58;13.13;;;12.10;;
830;SDS011;397;50.564;7.272;2023-06-10T04:07:26;16.80;;;15.13;;
830;SDS011;397;50.564;7.272;2023-06-10T04:09:54;14.70;;;13.37;;
830;SDS011;397;50.564;7.272;2023-06-10T04:12:22;13.93;;;12.80;;
830;SDS011;397;50.564;7.272;2023-06-10T04:14:49;14.70;;;13.37;;
830;SDS011;397;50.564;7.272;2023-06-10T04:17:17;13.43;;;12.43;;
830;SDS011;397;50.564;7.272;2023-06-10T04:19:45;13.63;;;12.30;;
830;SDS011;397;50.564;7.272;2023-06-10T04:22:12;14.60;;;13.30;;
830;SDS011;397;50.564;7.272;2023-06-10T04:24:40;13.63;;;12.63;;
830;SDS011;397;50.564;7.272;2023-06-10T04:27:08;14.17;;;12.87;;
830;SDS011;397;50.564;7.272;2023-06-10T04:29:36;15.10;;;13.80;;
830;SDS011;397;50.564;7.272;2023-06-10T04:32:03;14.90;;;13.43;;
830;SDS011;397;50.564;7.272;2023-06-10T04:34:36;13.70;;;12.43;;
830;SDS011;397;50.564;7.272;2023-06-10T04:37:06;14.30;;;13.00;;
830;SDS011;397;50.564;7.272;2023-06-10T04:39:33;14.17;;;12.97;;
830;SDS011;397;50.564;7.272;2023-06-10T04:42:01;14.33;;;13.13;;
830;SDS011;397;50.564;7.272;2023-06-10T04:44:29;14.37;;;13.00;;
830;SDS011;397;50.564;7.272;2023-06-10T04:46:56;14.70;;;13.40;;
830;SDS011;397;50.564;7.272;2023-06-10T04:49:24;13.97;;;12.67;;
830;SDS011;397;50.564;7.272;2023-06-10T04:51:51;12.70;;;11.70;;
830;SDS011;397;50.564;7.272;2023-06-10T04:54:19;13.70;;;12.50;;
830;SDS011;397;50.564;7.272;2023-06-10T04:56:46;13.70;;;12.57;;
830;SDS011;397;50.564;7.272;2023-06-10T04:59:14;14.00;;;12.70;;
830;SDS011;397;50.564;7.272;2023-06-10T05:01:41;13.17;;;12.17;;
830;SDS011;397;50.564;7.272;2023-06-10T05:04:09;13.30;;;12.20;;
830;SDS011;397;50.564;7.272;2023-06-10T05:06:36;13.03;;;11.83;;
830;SDS011;397;50.564;7.272;2023-06-10T05:09:04;14.73;;;13.23;;
830;SDS011;397;50.564;7.272;2023-06-10T05:11:31;13.43;;;12.30;;
830;SDS011;397;50.564;7.272;2023-06-10T05:13:59;12.60;;;11.50;;
830;SDS011;397;50.564;7.272;2023-06-10T05:16:26;11.73;;;10.73;;
830;SDS011;397;50.564;7.272;2023-06-10T05:18:54;12.83;;;11.73;;
830;SDS011;397;50.564;7.272;2023-06-10T05:21:21;12.47;;;11.57;;
830;SDS011;397;50.564;7.272;2023-06-10T05:23:49;11.80;;;10.80;;
830;SDS011;397;50.564;7.272;2023-06-10T05:26:16;12.53;;;11.33;;
830;SDS011;397;50.564;7.272;2023-06-10T05:28:44;10.63;;;9.80;;
830;SDS011;397;50.564;7.272;2023-06-10T05:31:11;11.97;;;10.90;;
830;SDS011;397;50.564;7.272;2023-06-10T05:33:39;11.47;;;10.57;;
830;SDS011;397;50.564;7.272;2023-06-10T05:36:06;11.93;;;10.73;;
830;SDS011;397;50.564;7.272;2023-06-10T05:38:34;11.70;;;10.60;;
830;SDS011;397;50.564;7.272;2023-06-10T05:41:01;15.17;;;11.47;;
830;SDS011;397;50.564;7.272;2023-06-10T05:43:29;11.53;;;10.47;;
830;SDS011;397;50.564;7.272;2023-06-10T05:45:57;11.27;;;10.27;;
830;SDS011;397;50.564;7.272;2023-06-10T05:48:24;11.80;;;10.57;;
830;SDS011;397;50.564;7.272;2023-06-10T05:50:52;10.57;;;9.67;;
830;SDS011;397;50.564;7.272;2023-06-10T05:53:19;11.90;;;10.90;;
830;SDS011;397;50.564;7.272;2023-06-10T05:55:47;10.67;;;9.77;;
830;SDS011;397;50.564;7.272;2023-06-10T05:58:14;11.50;;;10.30;;
830;SDS011;397;50.564;7.272;2023-06-10T06:00:42;11.60;;;10.60;;
830;SDS011;397;50.564;7.272;2023-06-10T06:03:09;11.03;;;10.03;;
830;SDS011;397;50.564;7.272;2023-06-10T06:05:37;11.77;;;10.77;;
830;SDS011;397;50.564;7.272;2023-06-10T06:08:05;11.00;;;10.10;;
830;SDS011;397;50.564;7.272;2023-06-10T06:10:32;13.20;;;12.00;;
830;SDS011;397;50.564;7.272;2023-06-10T06:13:00;11.73;;;10.83;;
830;SDS011;397;50.564;7.272;2023-06-10T06:15:28;12.35;;;11.25;;
830;SDS011;397;50.564;7.272;2023-06-10T06:17:56;11.23;;;10.13;;
830;SDS011;397;50.564;7.272;2023-06-10T06:20:23;12.53;;;11.33;;
830;SDS011;397;50.564;7.272;2023-06-10T06:22:51;13.07;;;11.77;;
830;SDS011;397;50.564;7.272;2023-06-10T06:25:18;11.53;;;10.53;;
830;SDS011;397;50.564;7.272;2023-06-10T06:27:46;12.15;;;11.25;;
830;SDS011;397;50.564;7.272;2023-06-10T06:30:13;12.23;;;11.20;;
830;SDS011;397;50.564;7.272;2023-06-10T06:32:41;11.83;;;10.90;;
830;SDS011;397;50.564;7.272;2023-06-10T06:35:08;12.07;;;10.87;;
830;SDS011;397;50.564;7.272;2023-06-10T06:37:36;11.67;;;10.83;;
830;SDS011;397;50.564;7.272;2023-06-10T06:40:04;12.53;;;11.53;;
830;SDS011;397;50.564;7.272;2023-06-10T06:42:32;11.53;;;10.73;;
830;SDS011;397;50.564;7.272;2023-06-10T06:44:59;10.73;;;9.93;;
830;SDS011;397;50.564;7.272;2023-06-10T06:47:27;11.73;;;10.73;;
830;SDS011;397;50.564;7.272;2023-06-10T06:49:54;10.70;;;9.77;;
830;SDS011;397;50.564;7.272;2023-06-10T06:52:22;10.70;;;9.87;;
830;SDS011;397;50.564;7.272;2023-06-10T06:54:49;11.40;;;10.40;;
830;SDS011;397;50.564;7.272;2023-06-10T06:57:17;11.87;;;10.97;;
830;SDS011;397;50.564;7.272;2023-06-10T06:59:44;11.40;;;10.20;;
830;SDS011;397;50.564;7.272;2023-06-10T07:02:12;10.23;;;9.43;;
830;SDS011;397;50.564;7.272;2023-06-10T07:04:39;10.03;;;9.13;;
830;SDS011;397;50.564;7.272;2023-06-10T07:07:07;12.03;;;11.03;;
830;SDS011;397;50.564;7.272;2023-06-10T07:09:35;10.30;;;9.40;;
830;SDS011;397;50.564;7.272;2023-06-10T07:12:02;13.33;;;12.03;;
830;SDS011;397;50.564;7.272;2023-06-10T07:14:31;12.40;;;11.30;;
830;SDS011;397;50.564;7.272;2023-06-10T07:16:58;11.60;;;10.53;;
830;SDS011;397;50.564;7.272;2023-06-10T07:19:26;11.93;;;10.43;;
830;SDS011;397;50.564;7.272;2023-06-10T07:21:53;12.10;;;11.20;;
830;SDS011;397;50.564;7.272;2023-06-10T07:24:21;13.43;;;11.10;;
830;SDS011;397;50.564;7.272;2023-06-10T07:26:48;12.60;;;11.40;;
830;SDS011;397;50.564;7.272;2023-06-10T07:29:16;11.97;;;10.97;;
830;SDS011;397;50.564;7.272;2023-06-10T07:31:44;12.57;;;11.40;;
830;SDS011;397;50.564;7.272;2023-06-10T07:34:11;12.43;;;11.33;;
830;SDS011;397;50.564;7.272;2023-06-10T07:36:39;12.13;;;11.13;;
830;SDS011;397;50.564;7.272;2023-06-10T07:39:06;12.90;;;11.80;;
830;SDS011;397;50.564;7.272;2023-06-10T07:41:34;13.10;;;12.00;;
830;SDS011;397;50.564;7.272;2023-06-10T07:44:02;13.03;;;11.93;;
830;SDS011;397;50.564;7.272;2023-06-10T07:46:29;11.93;;;10.93;;
830;SDS011;397;50.564;7.272;2023-06-10T07:48:57;10.80;;;9.80;;
830;SDS011;397;50.564;7.272;2023-06-10T07:51:24;10.50;;;9.50;;
830;SDS011;397;50.564;7.272;2023-06-10T07:53:52;9.97;;;9.07;;
830;SDS011;397;50.564;7.272;2023-06-10T07:56:20;9.77;;;8.80;;
830;SDS011;397;50.564;7.272;2023-06-10T07:58:47;10.97;;;10.07;;
830;SDS011;397;50.564;7.272;2023-06-10T08:01:15;10.50;;;9.60;;
830;SDS011;397;50.564;7.272;2023-06-10T08:03:42;9.33;;;8.50;;
830;SDS011;397;50.564;7.272;2023-06-10T08:06:10;9.87;;;9.07;;
830;SDS011;397;50.564;7.272;2023-06-10T08:08:37;10.17;;;9.23;;
830;SDS011;397;50.564;7.272;2023-06-10T08:11:06;10.50;;;9.60;;
830;SDS011;397;50.564;7.272;2023-06-10T08:13:34;11.00;;;9.90;;
830;SDS011;397;50.564;7.272;2023-06-10T08:16:02;9.17;;;7.93;;
830;SDS011;397;50.564;7.272;2023-06-10T08:18:29;10.60;;;8.63;;
830;SDS011;397;50.564;7.272;2023-06-10T08:20:57;10.50;;;9.60;;
830;SDS011;397;50.564;7.272;2023-06-10T08:23:24;10.60;;;9.00;;
830;SDS011;397;50.564;7.272;2023-06-10T08:25:52;9.73;;;8.93;;
830;SDS011;397;50.564;7.272;2023-06-10T08:28:19;9.87;;;8.93;;
830;SDS011;397;50.564;7.272;2023-06-10T08:30:47;9.67;;;8.70;;
830;SDS011;397;50.564;7.272;2023-06-10T08:33:14;10.80;;;9.80;;
830;SDS011;397;50.564;7.272;2023-06-10T08:35:42;10.17;;;9.17;;
830;SDS011;397;50.564;7.272;2023-06-10T08:38:09;10.97;;;9.80;;
830;SDS011;397;50.564;7.272;2023-06-10T08:40:37;10.90;;;9.80;;
830;SDS011;397;50.564;7.272;2023-06-10T08:43:05;10.33;;;9.43;;
830;SDS011;397;50.564;7.272;2023-06-10T08:45:37;10.40;;;9.43;;
830;SDS011;397;50.564;7.272;2023-06-10T08:48:05;13.53;;;9.20;;
830;SDS011;397;50.564;7.272;2023-06-10T08:50:34;10.50;;;9.60;;
830;SDS011;397;50.564;7.272;2023-06-10T08:53:04;10.17;;;9.17;;
830;SDS011;397;50.564;7.272;2023-06-10T08:55:33;9.50;;;8.63;;
830;SDS011;397;50.564;7.272;2023-06-10T08:58:06;9.83;;;9.03;;
830;SDS011;397;50.564;7.272;2023-06-10T09:00:34;11.13;;;10.13;;
830;SDS011;397;50.564;7.272;2023-06-10T09:03:03;11.87;;;10.70;;
830;SDS011;397;50.564;7.272;2023-06-10T09:05:33;9.80;;;8.90;;
830;SDS011;397;50.564;7.272;2023-06-10T09:08:03;9.63;;;8.70;;
830;SDS011;397;50.564;7.272;2023-06-10T09:10:33;10.97;;;10.07;;
830;SDS011;397;50.564;7.272;2023-06-10T09:13:01;12.90;;;9.80;;
830;SDS011;397;50.564;7.272;2023-06-10T09:15:29;10.60;;;9.60;;
830;SDS011;397;50.564;7.272;2023-06-10T09:17:56;10.05;;;9.05;;
830;SDS011;397;50.564;7.272;2023-06-10T09:20:25;10.57;;;9.57;;
830;SDS011;397;50.564;7.272;2023-06-10T09:22:52;11.17;;;9.60;;
830;SDS011;397;50.564;7.272;2023-06-10T09:25:20;11.00;;;10.00;;
830;SDS011;397;50.564;7.272;2023-06-10T09:27:51;10.30;;;9.40;;
830;SDS011;397;50.564;7.272;2023-06-10T09:30:24;10.57;;;9.60;;
830;SDS011;397;50.564;7.272;2023-06-10T09:32:53;10.70;;;9.73;;
830;SDS011;397;50.564;7.272;2023-06-10T09:35:24;10.03;;;9.03;;
830;SDS011;397;50.564;7.272;2023-06-10T09:37:56;10.77;;;9.83;;
830;SDS011;397;50.564;7.272;2023-06-10T09:40:26;10.83;;;9.97;;
830;SDS011;397;50.564;7.272;2023-06-10T09:42:59;10.77;;;9.87;;
830;SDS011;397;50.564;7.272;2023-06-10T09:45:30;10.67;;;9.67;;
830;SDS011;397;50.564;7.272;2023-06-10T09:47:57;9.50;;;8.70;;
830;SDS011;397;50.564;7.272;2023-06-10T09:50:25;11.80;;;10.70;;
830;SDS011;397;50.564;7.272;2023-06-10T09:52:53;10.40;;;9.50;;
830;SDS011;397;50.564;7.272;2023-06-10T09:55:20;10.20;;;9.40;;
830;SDS011;397;50.564;7.272;2023-06-10T09:57:52;11.10;;;10.10;;
830;SDS011;397;50.564;7.272;2023-06-10T10:00:21;9.60;;;8.80;;
830;SDS011;397;50.564;7.272;2023-06-10T10:02:52;9.90;;;9.00;;
830;SDS011;397;50.564;7.272;2023-06-10T10:05:20;9.30;;;8.50;;
830;SDS011;397;50.564;7.272;2023-06-10T10:07:48;11.10;;;9.67;;
830;SDS011;397;50.564;7.272;2023-06-10T10:10:17;10.20;;;9.30;;
830;SDS011;397;50.564;7.272;2023-06-10T10:12:47;9.97;;;9.07;;
830;SDS011;397;50.564;7.272;2023-06-10T10:15:16;9.50;;;8.47;;
830;SDS011;397;50.564;7.272;2023-06-10T10:17:55;10.23;;;9.10;;
830;SDS011;397;50.564;7.272;2023-06-10T10:20:27;10.60;;;9.60;;
830;SDS011;397;50.564;7.272;2023-06-10T10:22:57;9.37;;;8.50;;
830;SDS011;397;50.564;7.272;2023-06-10T10:25:29;8.20;;;7.50;;
830;SDS011;397;50.564;7.272;2023-06-10T10:28:08;9.13;;;8.13;;
830;SDS011;397;50.564;7.272;2023-06-10T10:30:34;8.47;;;7.77;;
830;SDS011;397;50.564;7.272;2023-06-10T10:33:11;7.30;;;6.70;;
830;SDS011;397;50.564;7.272;2023-06-10T10:35:52;10.33;;;7.87;;
830;SDS011;397;50.564;7.272;2023-06-10T10:38:21;7.73;;;7.03;;
830;SDS011;397;50.564;7.272;2023-06-10T10:40:49;8.93;;;7.40;;
830;SDS011;397;50.564;7.272;2023-06-10T10:43:17;9.17;;;7.80;;
830;SDS011;397;50.564;7.272;2023-06-10T10:45:46;8.90;;;7.90;;
830;SDS011;397;50.564;7.272;2023-06-10T10:48:15;10.00;;;8.53;;
830;SDS011;397;50.564;7.272;2023-06-10T10:50:42;8.53;;;7.73;;
830;SDS011;397;50.564;7.272;2023-06-10T10:53:11;8.87;;;8.07;;
830;SDS011;397;50.564;7.272;2023-06-10T10:55:42;9.00;;;8.10;;
830;SDS011;397;50.564;7.272;2023-06-10T10:58:12;8.93;;;8.13;;
830;SDS011;397;50.564;7.272;2023-06-10T11:00:45;7.73;;;6.93;;
830;SDS011;397;50.564;7.272;2023-06-10T11:03:13;8.13;;;6.90;;
830;SDS011;397;50.564;7.272;2023-06-10T11:05:45;9.67;;;8.77;;
830;SDS011;397;50.564;7.272;2023-06-10T11:08:15;9.30;;;8.40;;
830;SDS011;397;50.564;7.272;2023-06-10T11:10:53;9.90;;;8.30;;
830;SDS011;397;50.564;7.272;2023-06-10T11:13:21;8.53;;;7.83;;
830;SDS011;397;50.564;7.272;2023-06-10T11:15:49;10.43;;;7.87;;
830;SDS011;397;50.564;7.272;2023-06-10T11:31:27;8.33;;;7.53;;
830;SDS011;397;50.564;7.272;2023-06-10T11:34:00;8.23;;;7.53;;
830;SDS011;397;50.564;7.272;2023-06-10T11:36:27;7.60;;;6.93;;
830;SDS011;397;50.564;7.272;2023-06-10T11:38:58;8.17;;;7.47;;
830;SDS011;397;50.564;7.272;2023-06-10T11:41:27;7.90;;;7.20;;
830;SDS011;397;50.564;7.272;2023-06-10T11:43:56;8.07;;;7.33;;
830;SDS011;397;50.564;7.272;2023-06-10T11:46:29;7.70;;;6.80;;
830;SDS011;397;50.564;7.272;2023-06-10T11:48:58;7.53;;;6.60;;
830;SDS011;397;50.564;7.272;2023-06-10T11:51:27;8.87;;;7.30;;
830;SDS011;397;50.564;7.272;2023-06-10T11:53:56;8.50;;;7.13;;
830;SDS011;397;50.564;7.272;2023-06-10T11:56:24;8.13;;;7.13;;
830;SDS011;397;50.564;7.272;2023-06-10T11:58:53;7.60;;;6.90;;
830;SDS011;397;50.564;7.272;2023-06-10T12:01:23;7.90;;;6.73;;
830;SDS011;397;50.564;7.272;2023-06-10T12:03:58;7.47;;;6.80;;
830;SDS011;397;50.564;7.272;2023-06-10T12:06:46;8.07;;;7.27;;
830;SDS011;397;50.564;7.272;2023-06-10T12:09:19;7.13;;;6.43;;
830;SDS011;397;50.564;7.272;2023-06-10T12:11:48;7.93;;;7.17;;
830;SDS011;397;50.564;7.272;2023-06-10T12:20:08;7.53;;;6.67;;
830;SDS011;397;50.564;7.272;2023-06-10T12:22:43;6.97;;;6.40;;
830;SDS011;397;50.564;7.272;2023-06-10T12:25:11;7.63;;;6.83;;
830;SDS011;397;50.564;7.272;2023-06-10T12:27:40;8.33;;;6.60;;
830;SDS011;397;50.564;7.272;2023-06-10T12:30:09;7.00;;;6.30;;
830;SDS011;397;50.564;7.272;2023-06-10T12:32:37;7.83;;;6.60;;
830;SDS011;397;50.564;7.272;2023-06-10T12:35:09;7.40;;;6.60;;
830;SDS011;397;50.564;7.272;2023-06-10T12:37:41;7.10;;;6.10;;
830;SDS011;397;50.564;7.272;2023-06-10T12:40:09;8.67;;;6.53;;
830;SDS011;397;50.564;7.272;2023-06-10T12:42:36;9.37;;;7.80;;
830;SDS011;397;50.564;7.272;2023-06-10T12:45:05;7.93;;;6.80;;
830;SDS011;397;50.564;7.272;2023-06-10T12:47:35;8.00;;;7.20;;
830;SDS011;397;50.564;7.272;2023-06-10T12:50:07;7.50;;;6.80;;
830;SDS011;397;50.564;7.272;2023-06-10T12:52:34;9.33;;;7.43;;
830;SDS011;397;50.564;7.272;2023-06-10T12:55:02;8.43;;;7.10;;
830;SDS011;397;50.564;7.272;2023-06-10T12:57:30;8.07;;;6.77;;
830;SDS011;397;50.564;7.272;2023-06-10T12:59:58;8.27;;;6.70;;
830;SDS011;397;50.564;7.272;2023-06-10T13:02:27;10.03;;;7.07;;
830;SDS011;397;50.564;7.272;2023-06-10T13:04:54;9.53;;;7.50;;
830;SDS011;397;50.564;7.272;2023-06-10T13:07:22;7.57;;;6.87;;
830;SDS011;397;50.564;7.272;2023-06-10T13:09:50;7.80;;;7.10;;
830;SDS011;397;50.564;7.272;2023-06-10T13:12:17;10.37;;;8.03;;
830;SDS011;397;50.564;7.272;2023-06-10T13:14:46;9.10;;;7.27;;
830;SDS011;397;50.564;7.272;2023-06-10T13:17:14;7.70;;;6.90;;
830;SDS011;397;50.564;7.272;2023-06-10T13:19:42;7.50;;;6.43;;
830;SDS011;397;50.564;7.272;2023-06-10T13:22:09;7.43;;;6.83;;
830;SDS011;397;50.564;7.272;2023-06-10T13:24:40;7.00;;;6.33;;
830;SDS011;397;50.564;7.272;2023-06-10T13:27:09;8.20;;;7.40;;
830;SDS011;397;50.564;7.272;2023-06-10T13:29:39;7.67;;;6.97;;
830;SDS011;397;50.564;7.272;2023-06-10T13:32:07;7.30;;;6.53;;
830;SDS011;397;50.564;7.272;2023-06-10T13:34:40;7.43;;;6.77;;
830;SDS011;397;50.564;7.272;2023-06-10T13:37:04;6.50;;;5.90;;
830;SDS011;397;50.564;7.272;2023-06-10T13:39:31;7.20;;;6.43;;
830;SDS011;397;50.564;7.272;2023-06-10T13:41:59;7.63;;;6.67;;
830;SDS011;397;50.564;7.272;2023-06-10T13:44:26;6.30;;;5.77;;
830;SDS011;397;50.564;7.272;2023-06-10T13:46:56;7.60;;;6.90;;
830;SDS011;397;50.564;7.272;2023-06-10T13:49:23;8.00;;;6.80;;
830;SDS011;397;50.564;7.272;2023-06-10T13:51:50;7.57;;;6.90;;
830;SDS011;397;50.564;7.272;2023-06-10T13:54:18;7.37;;;6.67;;
830;SDS011;397;50.564;7.272;2023-06-10T13:56:47;7.73;;;7.13;;
830;SDS011;397;50.564;7.272;2023-06-10T13:59:14;6.80;;;6.20;;
830;SDS011;397;50.564;7.272;2023-06-10T14:01:42;7.80;;;7.10;;
830;SDS011;397;50.564;7.272;2023-06-10T14:04:09;7.60;;;6.90;;
830;SDS011;397;50.564;7.272;2023-06-10T14:06:37;6.70;;;6.10;;
830;SDS011;397;50.564;7.272;2023-06-10T14:09:05;7.10;;;6.40;;
830;SDS011;397;50.564;7.272;2023-06-10T14:11:32;8.07;;;7.27;;
830;SDS011;397;50.564;7.272;2023-06-10T14:14:00;13.47;;;6.80;;
830;SDS011;397;50.564;7.272;2023-06-10T14:16:27;7.63;;;6.93;;
830;SDS011;397;50.564;7.272;2023-06-10T14:18:55;7.63;;;5.93;;
830;SDS011;397;50.564;7.272;2023-06-10T14:21:22;6.50;;;5.90;;
830;SDS011;397;50.564;7.272;2023-06-10T14:23:50;8.13;;;7.27;;
830;SDS011;397;50.564;7.272;2023-06-10T14:26:19;7.60;;;6.87;;
830;SDS011;397;50.564;7.272;2023-06-10T14:28:48;6.70;;;6.10;;
830;SDS011;397;50.564;7.272;2023-06-10T14:31:16;8.07;;;7.27;;
830;SDS011;397;50.564;7.272;2023-06-10T14:33:43;7.40;;;6.80;;
830;SDS011;397;50.564;7.272;2023-06-10T14:36:11;9.93;;;6.67;;
830;SDS011;397;50.564;7.272;2023-06-10T14:38:38;7.87;;;7.17;;
830;SDS011;397;50.564;7.272;2023-06-10T14:41:06;7.37;;;6.77;;
830;SDS011;397;50.564;7.272;2023-06-10T14:43:33;11.33;;;6.87;;
830;SDS011;397;50.564;7.272;2023-06-10T14:46:01;7.83;;;7.20;;
830;SDS011;397;50.564;7.272;2023-06-10T14:48:29;8.33;;;7.20;;
830;SDS011;397;50.564;7.272;2023-06-10T14:50:56;7.00;;;6.30;;
830;SDS011;397;50.564;7.272;2023-06-10T14:53:24;7.70;;;6.37;;
830;SDS011;397;50.564;7.272;2023-06-10T14:55:52;6.97;;;6.27;;
830;SDS011;397;50.564;7.272;2023-06-10T14:58:19;8.53;;;7.17;;
830;SDS011;397;50.564;7.272;2023-06-10T15:00:47;8.07;;;7.30;;
830;SDS011;397;50.564;7.272;2023-06-10T15:03:14;7.70;;;7.00;;
830;SDS011;397;50.564;7.272;2023-06-10T15:05:42;12.73;;;7.50;;
830;SDS011;397;50.564;7.272;2023-06-10T15:08:09;8.07;;;7.27;;
830;SDS011;397;50.564;7.272;2023-06-10T15:10:37;7.50;;;6.13;;
830;SDS011;397;50.564;7.272;2023-06-10T15:13:04;7.97;;;7.27;;
830;SDS011;397;50.564;7.272;2023-06-10T15:15:32;7.63;;;6.97;;
830;SDS011;397;50.564;7.272;2023-06-10T15:17:59;8.20;;;7.40;;
830;SDS011;397;50.564;7.272;2023-06-10T15:20:27;8.53;;;7.83;;
830;SDS011;397;50.564;7.272;2023-06-10T15:22:54;8.47;;;7.70;;
830;SDS011;397;50.564;7.272;2023-06-10T15:25:22;7.67;;;6.97;;
830;SDS011;397;50.564;7.272;2023-06-10T15:27:49;7.90;;;7.20;;
830;SDS011;397;50.564;7.272;2023-06-10T15:30:17;7.77;;;7.00;;
830;SDS011;397;50.564;7.272;2023-06-10T15:32:45;6.97;;;6.27;;
830;SDS011;397;50.564;7.272;2023-06-10T15:35:12;7.33;;;6.53;;
830;SDS011;397;50.564;7.272;2023-06-10T15:37:40;7.73;;;6.93;;
830;SDS011;397;50.564;7.272;2023-06-10T15:40:07;7.30;;;6.60;;
830;SDS011;397;50.564;7.272;2023-06-10T15:42:35;7.07;;;6.37;;
830;SDS011;397;50.564;7.272;2023-06-10T15:45:03;7.03;;;6.33;;
830;SDS011;397;50.564;7.272;2023-06-10T15:47:31;7.13;;;6.43;;
830;SDS011;397;50.564;7.272;2023-06-10T15:49:58;7.03;;;6.13;;
830;SDS011;397;50.564;7.272;2023-06-10T15:52:26;8.97;;;6.57;;
830;SDS011;397;50.564;7.272;2023-06-10T15:54:53;7.30;;;6.60;;
830;SDS011;397;50.564;7.272;2023-06-10T15:57:20;8.93;;;8.13;;